sensor_id;sensor_type;location;lat;lon;timestamp;pressure;altitude;pressure_sealevel;temperature;humidity
24610;BME280;12758;47.890;11.694;2023-06-10T00:02:04;93456.41;;;21.49;72.45
24610;BME280;12758;47.890;11.694;2023-06-10T00:04:32;93451.72;;;21.46;72.35
24610;BME280;12758;47.890;11.694;2023-06-10T00:06:58;93454.97;;;21.30;73.38
24610;BME280;12758;47.890;11.694;2023-06-10T00:09:24;93450.28;;;21.23;73.36
24610;BME280;12758;47.890;11.694;2023-06-10T00:11:50;93451.84;;;21.24;73.48
24610;BME280;12758;47.890;11.694;2023-06-10T00:14:16;93454.94;;;21.33;73.17
24610;BME280;12758;47.890;11.694;2023-06-10T00:16:42;93449.81;;;21.32;73.32
24610;BME280;12758;47.890;11.694;2023-06-10T00:19:10;93454.53;;;21.31;73.07
24610;BME280;12758;47.890;11.694;2023-06-10T00:21:39;93444.75;;;21.23;73.28
24610;BME280;12758;47.890;11.694;2023-06-10T00:24:06;93446.41;;;21.13;73.77
24610;BME280;12758;47.890;11.694;2023-06-10T00:26:33;93449.94;;;21.14;73.71
24610;BME280;12758;47.890;11.694;2023-06-10T00:28:59;93450.38;;;21.12;73.64
24610;BME280;12758;47.890;11.694;2023-06-10T00:31:24;93450.38;;;21.09;74.00
24610;BME280;12758;47.890;11.694;2023-06-10T00:33:51;93445.66;;;21.06;73.81
24610;BME280;12758;47.890;11.694;2023-06-10T00:36:17;93449.59;;;21.08;74.00
24610;BME280;12758;47.890;11.694;2023-06-10T00:38:44;93455.91;;;21.05;74.07
24610;BME280;12758;47.890;11.694;2023-06-10T00:41:10;93456.00;;;20.94;74.57
24610;BME280;12758;47.890;11.694;2023-06-10T00:43:36;93463.13;;;20.88;75.13
24610;BME280;12758;47.890;11.694;2023-06-10T00:46:02;93461.13;;;20.92;74.93
24610;BME280;12758;47.890;11.694;2023-06-10T00:48:28;93458.34;;;21.00;74.72
24610;BME280;12758;47.890;11.694;2023-06-10T00:50:54;93457.56;;;20.96;74.52
24610;BME280;12758;47.890;11.694;2023-06-10T00:53:21;93463.94;;;20.85;75.18
24610;BME280;12758;47.890;11.694;2023-06-10T00:55:48;93461.91;;;20.89;75.02
24610;BME280;12758;47.890;11.694;2023-06-10T00:58:14;93462.34;;;20.88;74.76
24610;BME280;12758;47.890;11.694;2023-06-10T01:00:41;93461.59;;;20.77;75.39
24610;BME280;12758;47.890;11.694;2023-06-10T01:03:07;93463.97;;;20.78;75.63
24610;BME280;12758;47.890;11.694;2023-06-10T01:05:33;93469.44;;;20.85;75.53
24610;BME280;12758;47.890;11.694;2023-06-10T01:08:01;93458.41;;;20.85;75.24
24610;BME280;12758;47.890;11.694;2023-06-10T01:10:32;93462.38;;;20.84;75.04
24610;BME280;12758;47.890;11.694;2023-06-10T01:13:00;93466.28;;;20.83;75.29
24610;BME280;12758;47.890;11.694;2023-06-10T01:15:28;93468.69;;;20.81;74.93
24610;BME280;12758;47.890;11.694;2023-06-10T01:17:56;93466.38;;;20.69;74.86
24610;BME280;12758;47.890;11.694;2023-06-10T01:20:23;93475.06;;;20.71;73.25
24610;BME280;12758;47.890;11.694;2023-06-10T01:22:51;93475.88;;;20.61;73.53
24610;BME280;12758;47.890;11.694;2023-06-10T01:25:19;93466.44;;;20.47;75.00
24610;BME280;12758;47.890;11.694;2023-06-10T01:27:54;93460.16;;;20.43;75.89
24610;BME280;12758;47.890;11.694;2023-06-10T01:30:26;93466.44;;;20.47;76.02
24610;BME280;12758;47.890;11.694;2023-06-10T01:32:55;93464.88;;;20.46;75.97
24610;BME280;12758;47.890;11.694;2023-06-10T01:35:22;93464.47;;;20.44;76.40
24610;BME280;12758;47.890;11.694;2023-06-10T01:37:51;93466.44;;;20.47;76.02
24610;BME280;12758;47.890;11.694;2023-06-10T01:40:19;93462.53;;;20.48;76.19
24610;BME280;12758;47.890;11.694;2023-06-10T01:42:45;93461.72;;;20.48;76.28
24610;BME280;12758;47.890;11.694;2023-06-10T01:45:11;93460.13;;;20.51;75.99
24610;BME280;12758;47.890;11.694;2023-06-10T01:47:37;93463.69;;;20.47;76.23
24610;BME280;12758;47.890;11.694;2023-06-10T01:50:04;93466.47;;;20.44;76.62
24610;BME280;12758;47.890;11.694;2023-06-10T01:52:30;93466.47;;;20.40;76.74
24610;BME280;12758;47.890;11.694;2023-06-10T01:54:56;93463.31;;;20.38;77.18
24610;BME280;12758;47.890;11.694;2023-06-10T01:57:22;93466.91;;;20.35;77.33
24610;BME280;12758;47.890;11.694;2023-06-10T01:59:48;93462.56;;;20.34;77.35
24610;BME280;12758;47.890;11.694;2023-06-10T02:02:14;93468.06;;;20.34;77.68
24610;BME280;12758;47.890;11.694;2023-06-10T02:04:41;93463.72;;;20.40;77.21
24610;BME280;12758;47.890;11.694;2023-06-10T02:07:07;93464.13;;;20.42;77.22
24610;BME280;12758;47.890;11.694;2023-06-10T02:09:33;93464.91;;;20.43;77.06
24610;BME280;12758;47.890;11.694;2023-06-10T02:12:02;93463.41;;;20.17;73.96
24610;BME280;12758;47.890;11.694;2023-06-10T02:14:28;93458.66;;;20.28;78.00
24610;BME280;12758;47.890;11.694;2023-06-10T02:16:54;93468.91;;;20.24;78.16
24610;BME280;12758;47.890;11.694;2023-06-10T02:19:21;93464.16;;;20.24;77.82
24610;BME280;12758;47.890;11.694;2023-06-10T02:21:47;93463.41;;;20.20;77.71
24610;BME280;12758;47.890;11.694;2023-06-10T02:24:13;93468.16;;;20.13;78.49
24610;BME280;12758;47.890;11.694;2023-06-10T02:26:40;93464.22;;;20.14;78.54
24610;BME280;12758;47.890;11.694;2023-06-10T02:29:06;93464.59;;;20.16;78.32
24610;BME280;12758;47.890;11.694;2023-06-10T02:31:33;93462.63;;;20.20;78.08
24610;BME280;12758;47.890;11.694;2023-06-10T02:34:00;93462.66;;;20.13;78.20
24610;BME280;12758;47.890;11.694;2023-06-10T02:36:26;93467.38;;;20.09;78.88
24610;BME280;12758;47.890;11.694;2023-06-10T02:38:53;93465.03;;;20.04;78.76
24610;BME280;12758;47.890;11.694;2023-06-10T02:41:19;93467.78;;;20.04;78.89
24610;BME280;12758;47.890;11.694;2023-06-10T02:43:47;93469.75;;;19.99;79.12
24610;BME280;12758;47.890;11.694;2023-06-10T02:46:13;93470.94;;;19.95;79.50
24610;BME280;12758;47.890;11.694;2023-06-10T02:48:42;93472.91;;;19.98;79.15
24610;BME280;12758;47.890;11.694;2023-06-10T02:51:09;93473.69;;;20.02;78.88
24610;BME280;12758;47.890;11.694;2023-06-10T02:53:35;93476.06;;;20.00;79.00
24610;BME280;12758;47.890;11.694;2023-06-10T02:56:01;93467.41;;;19.94;79.14
24610;BME280;12758;47.890;11.694;2023-06-10T02:58:27;93463.50;;;19.88;80.18
24610;BME280;12758;47.890;11.694;2023-06-10T03:00:53;93469.00;;;19.85;80.43
24610;BME280;12758;47.890;11.694;2023-06-10T03:03:21;93467.41;;;19.84;80.86
24610;BME280;12758;47.890;11.694;2023-06-10T03:05:47;93465.06;;;19.82;80.78
24610;BME280;12758;47.890;11.694;2023-06-10T03:08:14;93461.16;;;19.76;81.67
24610;BME280;12758;47.890;11.694;2023-06-10T03:10:40;93469.00;;;19.74;81.82
24610;BME280;12758;47.890;11.694;2023-06-10T03:13:06;93462.34;;;19.68;82.40
24610;BME280;12758;47.890;11.694;2023-06-10T03:15:32;93463.50;;;19.74;82.49
24610;BME280;12758;47.890;11.694;2023-06-10T03:17:58;93467.44;;;19.80;81.67
24610;BME280;12758;47.890;11.694;2023-06-10T03:20:25;93472.94;;;19.80;81.83
24610;BME280;12758;47.890;11.694;2023-06-10T03:22:51;93463.91;;;19.80;81.47
24610;BME280;12758;47.890;11.694;2023-06-10T03:25:17;93469.81;;;19.78;81.90
24610;BME280;12758;47.890;11.694;2023-06-10T03:27:43;93465.88;;;19.68;82.54
24610;BME280;12758;47.890;11.694;2023-06-10T03:30:10;93468.66;;;19.65;82.82
24610;BME280;12758;47.890;11.694;2023-06-10T03:32:37;93472.19;;;19.69;83.03
24610;BME280;12758;47.890;11.694;2023-06-10T03:35:03;93480.03;;;19.74;82.14
24610;BME280;12758;47.890;11.694;2023-06-10T03:37:30;93483.19;;;19.69;81.97
24610;BME280;12758;47.890;11.694;2023-06-10T03:39:56;93487.13;;;19.68;82.37
24610;BME280;12758;47.890;11.694;2023-06-10T03:42:22;93483.19;;;19.69;81.97
24610;BME280;12758;47.890;11.694;2023-06-10T03:44:48;93494.19;;;19.62;82.55
24610;BME280;12758;47.890;11.694;2023-06-10T03:47:14;93483.97;;;19.55;83.11
24610;BME280;12758;47.890;11.694;2023-06-10T03:49:41;93492.22;;;19.51;83.18
24610;BME280;12758;47.890;11.694;2023-06-10T03:52:07;93483.94;;;19.51;83.50
24610;BME280;12758;47.890;11.694;2023-06-10T03:54:34;93491.81;;;19.57;83.15
24610;BME280;12758;47.890;11.694;2023-06-10T03:57:00;93493.38;;;19.58;82.75
24610;BME280;12758;47.890;11.694;2023-06-10T03:59:26;93491.03;;;19.60;82.50
24610;BME280;12758;47.890;11.694;2023-06-10T04:01:54;93494.16;;;19.54;82.23
24610;BME280;12758;47.890;11.694;2023-06-10T04:04:20;93495.78;;;19.55;82.63
24610;BME280;12758;47.890;11.694;2023-06-10T04:06:46;93498.88;;;19.58;82.39
24610;BME280;12758;47.890;11.694;2023-06-10T04:09:12;93499.69;;;19.51;82.73
24610;BME280;12758;47.890;11.694;2023-06-10T04:11:39;93494.19;;;19.44;83.25
24610;BME280;12758;47.890;11.694;2023-06-10T04:14:05;93499.69;;;19.44;83.39
24610;BME280;12758;47.890;11.694;2023-06-10T04:16:31;93500.47;;;19.44;83.61
24610;BME280;12758;47.890;11.694;2023-06-10T04:18:58;93498.91;;;19.40;83.79
24610;BME280;12758;47.890;11.694;2023-06-10T04:21:24;93499.28;;;19.38;84.11
24610;BME280;12758;47.890;11.694;2023-06-10T04:23:50;93490.25;;;19.38;84.10
24610;BME280;12758;47.890;11.694;2023-06-10T04:26:16;93502.81;;;19.31;84.52
24610;BME280;12758;47.890;11.694;2023-06-10T04:28:43;93512.22;;;19.05;86.63
24610;BME280;12758;47.890;11.694;2023-06-10T04:31:09;93509.91;;;17.58;100.00
24610;BME280;12758;47.890;11.694;2023-06-10T04:33:36;93507.13;;;17.54;100.00
24610;BME280;12758;47.890;11.694;2023-06-10T04:36:02;93517.03;;;18.25;100.00
24610;BME280;12758;47.890;11.694;2023-06-10T04:38:28;93515.50;;;18.34;98.01
24610;BME280;12758;47.890;11.694;2023-06-10T04:40:56;93511.31;;;18.62;95.01
24610;BME280;12758;47.890;11.694;2023-06-10T04:43:22;93513.75;;;18.85;92.13
24610;BME280;12758;47.890;11.694;2023-06-10T04:45:48;93515.75;;;18.95;90.88
24610;BME280;12758;47.890;11.694;2023-06-10T04:48:14;93516.16;;;19.01;90.39
24610;BME280;12758;47.890;11.694;2023-06-10T04:50:41;93521.66;;;19.08;89.88
24610;BME280;12758;47.890;11.694;2023-06-10T04:53:07;93529.50;;;18.95;90.82
24610;BME280;12758;47.890;11.694;2023-06-10T04:55:33;93529.91;;;18.97;91.84
24610;BME280;12758;47.890;11.694;2023-06-10T04:57:59;93534.22;;;19.02;91.28
24610;BME280;12758;47.890;11.694;2023-06-10T05:00:25;93531.13;;;19.11;90.04
24610;BME280;12758;47.890;11.694;2023-06-10T05:02:52;93535.84;;;19.14;89.59
24610;BME280;12758;47.890;11.694;2023-06-10T05:05:18;93542.13;;;19.14;89.18
24610;BME280;12758;47.890;11.694;2023-06-10T05:07:44;93533.09;;;19.14;90.27
24610;BME280;12758;47.890;11.694;2023-06-10T05:10:10;93534.25;;;19.16;89.29
24610;BME280;12758;47.890;11.694;2023-06-10T05:12:38;93538.19;;;19.08;92.20
24610;BME280;12758;47.890;11.694;2023-06-10T05:15:05;93540.84;;;18.83;100.00
24610;BME280;12758;47.890;11.694;2023-06-10T05:17:31;93548.22;;;17.91;100.00
24610;BME280;12758;47.890;11.694;2023-06-10T05:19:57;93543.88;;;18.56;100.00
24610;BME280;12758;47.890;11.694;2023-06-10T05:22:23;93552.59;;;18.73;99.91
24610;BME280;12758;47.890;11.694;2023-06-10T05:24:50;93544.38;;;18.80;98.39
24610;BME280;12758;47.890;11.694;2023-06-10T05:27:16;93541.22;;;18.78;100.00
24610;BME280;12758;47.890;11.694;2023-06-10T05:29:42;93548.19;;;18.57;100.00
24610;BME280;12758;47.890;11.694;2023-06-10T05:32:08;93550.19;;;18.71;100.00
24610;BME280;12758;47.890;11.694;2023-06-10T05:34:34;93551.16;;;17.68;100.00
24610;BME280;12758;47.890;11.694;2023-06-10T05:37:01;93554.47;;;17.85;100.00
24610;BME280;12758;47.890;11.694;2023-06-10T05:39:27;93556.25;;;17.66;100.00
24610;BME280;12758;47.890;11.694;2023-06-10T05:41:53;93552.75;;;18.25;100.00
24610;BME280;12758;47.890;11.694;2023-06-10T05:44:19;93546.50;;;18.35;100.00
24610;BME280;12758;47.890;11.694;2023-06-10T05:46:45;93548.06;;;18.29;100.00
24610;BME280;12758;47.890;11.694;2023-06-10T05:49:11;93541.13;;;18.60;100.00
24610;BME280;12758;47.890;11.694;2023-06-10T05:51:37;93550.66;;;18.77;100.00
24610;BME280;12758;47.890;11.694;2023-06-10T05:54:04;93544.38;;;18.76;100.00
24610;BME280;12758;47.890;11.694;2023-06-10T05:56:30;93552.16;;;18.71;100.00
24610;BME280;12758;47.890;11.694;2023-06-10T05:58:56;93550.66;;;18.80;100.00
24610;BME280;12758;47.890;11.694;2023-06-10T06:01:22;93552.94;;;18.68;100.00
24610;BME280;12758;47.890;11.694;2023-06-10T06:03:48;93542.88;;;17.61;100.00
24610;BME280;12758;47.890;11.694;2023-06-10T06:06:14;93549.50;;;18.05;100.00
24610;BME280;12758;47.890;11.694;2023-06-10T06:08:40;93544.94;;;18.34;100.00
24610;BME280;12758;47.890;11.694;2023-06-10T06:11:07;93543.50;;;18.61;100.00
24610;BME280;12758;47.890;11.694;2023-06-10T06:13:33;93544.75;;;18.02;100.00
24610;BME280;12758;47.890;11.694;2023-06-10T06:15:59;93542.38;;;18.00;100.00
24610;BME280;12758;47.890;11.694;2023-06-10T06:18:25;93546.94;;;18.41;100.00
24610;BME280;12758;47.890;11.694;2023-06-10T06:20:51;93539.28;;;18.05;100.00
24610;BME280;12758;47.890;11.694;2023-06-10T06:23:17;93546.53;;;18.42;100.00
24610;BME280;12758;47.890;11.694;2023-06-10T06:25:43;93533.13;;;18.26;100.00
24610;BME280;12758;47.890;11.694;2023-06-10T06:28:09;93544.31;;;18.62;100.00
24610;BME280;12758;47.890;11.694;2023-06-10T06:30:36;93544.22;;;18.44;100.00
24610;BME280;12758;47.890;11.694;2023-06-10T06:33:02;93548.25;;;18.72;100.00
24610;BME280;12758;47.890;11.694;2023-06-10T06:35:30;93546.38;;;18.13;100.00
24610;BME280;12758;47.890;11.694;2023-06-10T06:37:56;93552.28;;;17.60;100.00
24610;BME280;12758;47.890;11.694;2023-06-10T06:40:24;93557.28;;;17.96;100.00
24610;BME280;12758;47.890;11.694;2023-06-10T06:42:50;93558.97;;;18.14;100.00
24610;BME280;12758;47.890;11.694;2023-06-10T06:45:17;93557.78;;;18.99;100.00
24610;BME280;12758;47.890;11.694;2023-06-10T06:47:43;93557.06;;;19.24;100.00
24610;BME280;12758;47.890;11.694;2023-06-10T06:50:09;93562.59;;;19.38;100.00
24610;BME280;12758;47.890;11.694;2023-06-10T06:52:35;93565.56;;;18.72;100.00
24610;BME280;12758;47.890;11.694;2023-06-10T06:55:01;93565.47;;;18.61;100.00
24610;BME280;12758;47.890;11.694;2023-06-10T06:57:27;93567.94;;;18.74;100.00
24610;BME280;12758;47.890;11.694;2023-06-10T06:59:53;93562.44;;;18.81;100.00
24610;BME280;12758;47.890;11.694;2023-06-10T07:02:20;93557.78;;;18.92;100.00
24610;BME280;12758;47.890;11.694;2023-06-10T07:04:46;93569.56;;;18.96;100.00
24610;BME280;12758;47.890;11.694;2023-06-10T07:07:14;93559.44;;;19.25;100.00
24610;BME280;12758;47.890;11.694;2023-06-10T07:09:40;93564.19;;;19.53;100.00
24610;BME280;12758;47.890;11.694;2023-06-10T07:12:07;93560.69;;;19.71;100.00
24610;BME280;12758;47.890;11.694;2023-06-10T07:14:33;93560.28;;;19.83;100.00
24610;BME280;12758;47.890;11.694;2023-06-10T07:16:59;93562.66;;;19.88;100.00
24610;BME280;12758;47.890;11.694;2023-06-10T07:19:26;93567.72;;;19.36;100.00
24610;BME280;12758;47.890;11.694;2023-06-10T07:21:52;93568.16;;;19.67;100.00
24610;BME280;12758;47.890;11.694;2023-06-10T07:24:18;93564.25;;;19.68;100.00
24610;BME280;12758;47.890;11.694;2023-06-10T07:26:45;93570.88;;;19.49;100.00
24610;BME280;12758;47.890;11.694;2023-06-10T07:29:11;93569.69;;;19.46;100.00
24610;BME280;12758;47.890;11.694;2023-06-10T07:31:38;93565.78;;;19.62;100.00
24610;BME280;12758;47.890;11.694;2023-06-10T07:34:04;93567.34;;;19.52;100.00
24610;BME280;12758;47.890;11.694;2023-06-10T07:36:30;93563.06;;;19.80;100.00
24610;BME280;12758;47.890;11.694;2023-06-10T07:38:56;93572.03;;;19.48;100.00
24610;BME280;12758;47.890;11.694;2023-06-10T07:41:22;93561.41;;;19.32;100.00
24610;BME280;12758;47.890;11.694;2023-06-10T07:43:50;93571.66;;;19.60;100.00
24610;BME280;12758;47.890;11.694;2023-06-10T07:46:20;93562.63;;;19.60;100.00
24610;BME280;12758;47.890;11.694;2023-06-10T07:48:46;93568.09;;;19.45;100.00
24610;BME280;12758;47.890;11.694;2023-06-10T07:51:12;93564.97;;;19.43;100.00
24610;BME280;12758;47.890;11.694;2023-06-10T07:53:38;93568.13;;;19.52;100.00
24610;BME280;12758;47.890;11.694;2023-06-10T07:56:04;93561.09;;;19.91;100.00
24610;BME280;12758;47.890;11.694;2023-06-10T07:58:30;93566.97;;;19.96;100.00
24610;BME280;12758;47.890;11.694;2023-06-10T08:00:56;93566.19;;;19.92;100.00
24610;BME280;12758;47.890;11.694;2023-06-10T08:03:22;93568.91;;;20.24;100.00
24610;BME280;12758;47.890;11.694;2023-06-10T08:05:48;93568.16;;;20.17;100.00
24610;BME280;12758;47.890;11.694;2023-06-10T08:08:15;93564.19;;;20.36;100.00
24610;BME280;12758;47.890;11.694;2023-06-10T08:10:41;93565.72;;;20.40;100.00
24610;BME280;12758;47.890;11.694;2023-06-10T08:13:07;93563.38;;;20.42;100.00
24610;BME280;12758;47.890;11.694;2023-06-10T08:15:34;93560.28;;;20.01;100.00
24610;BME280;12758;47.890;11.694;2023-06-10T08:18:00;93566.19;;;20.07;100.00
24610;BME280;12758;47.890;11.694;2023-06-10T08:20:26;93566.19;;;20.14;100.00
24610;BME280;12758;47.890;11.694;2023-06-10T08:22:52;93571.25;;;20.33;100.00
24610;BME280;12758;47.890;11.694;2023-06-10T08:25:18;93564.97;;;20.22;100.00
24610;BME280;12758;47.890;11.694;2023-06-10T08:27:45;93566.50;;;20.44;100.00
24610;BME280;12758;47.890;11.694;2023-06-10T08:30:11;93574.03;;;20.12;100.00
24610;BME280;12758;47.890;11.694;2023-06-10T08:32:38;93573.25;;;20.22;100.00
24610;BME280;12758;47.890;11.694;2023-06-10T08:35:05;93574.44;;;20.21;100.00
24610;BME280;12758;47.890;11.694;2023-06-10T08:37:31;93566.88;;;20.50;100.00
24610;BME280;12758;47.890;11.694;2023-06-10T08:39:57;93573.63;;;20.31;100.00
24610;BME280;12758;47.890;11.694;2023-06-10T08:42:25;93574.84;;;20.12;100.00
24610;BME280;12758;47.890;11.694;2023-06-10T08:44:55;93568.50;;;20.33;100.00
24610;BME280;12758;47.890;11.694;2023-06-10T08:47:23;93571.25;;;20.55;100.00
24610;BME280;12758;47.890;11.694;2023-06-10T08:49:50;93568.09;;;20.49;100.00
24610;BME280;12758;47.890;11.694;2023-06-10T08:52:17;93576.00;;;20.25;100.00
24610;BME280;12758;47.890;11.694;2023-06-10T08:54:48;93569.66;;;20.54;100.00
24610;BME280;12758;47.890;11.694;2023-06-10T08:57:15;93563.34;;;20.50;100.00
24610;BME280;12758;47.890;11.694;2023-06-10T08:59:43;93562.59;;;20.53;100.00
24610;BME280;12758;47.890;11.694;2023-06-10T09:02:10;93572.03;;;20.52;100.00
24610;BME280;12758;47.890;11.694;2023-06-10T09:04:37;93568.09;;;20.45;100.00
24610;BME280;12758;47.890;11.694;2023-06-10T09:07:03;93568.50;;;20.40;100.00
24610;BME280;12758;47.890;11.694;2023-06-10T09:09:29;93562.56;;;20.45;100.00
24610;BME280;12758;47.890;11.694;2023-06-10T09:11:56;93568.88;;;20.57;100.00
24610;BME280;12758;47.890;11.694;2023-06-10T09:14:22;93561.38;;;20.54;100.00
24610;BME280;12758;47.890;11.694;2023-06-10T09:16:49;93563.34;;;20.57;100.00
24610;BME280;12758;47.890;11.694;2023-06-10T09:19:16;93558.59;;;20.68;100.00
24610;BME280;12758;47.890;11.694;2023-06-10T09:21:42;93562.53;;;20.67;100.00
24610;BME280;12758;47.890;11.694;2023-06-10T09:24:08;93560.97;;;20.66;100.00
24610;BME280;12758;47.890;11.694;2023-06-10T09:26:34;93558.19;;;20.66;100.00
24610;BME280;12758;47.890;11.694;2023-06-10T09:29:03;93560.13;;;20.76;100.00
24610;BME280;12758;47.890;11.694;2023-06-10T09:31:30;93562.41;;;21.03;100.00
24610;BME280;12758;47.890;11.694;2023-06-10T09:34:05;93560.84;;;20.94;100.00
24610;BME280;12758;47.890;11.694;2023-06-10T09:36:32;93560.34;;;21.14;100.00
24610;BME280;12758;47.890;11.694;2023-06-10T09:38:58;93567.84;;;21.17;100.00
24610;BME280;12758;47.890;11.694;2023-06-10T09:41:33;93556.00;;;21.20;100.00
24610;BME280;12758;47.890;11.694;2023-06-10T09:43:59;93558.28;;;21.32;100.00
24610;BME280;12758;47.890;11.694;2023-06-10T09:46:25;93564.59;;;21.33;100.00
24610;BME280;12758;47.890;11.694;2023-06-10T09:48:57;93568.59;;;21.21;100.00
24610;BME280;12758;47.890;11.694;2023-06-10T09:51:23;93562.41;;;21.03;100.00
24610;BME280;12758;47.890;11.694;2023-06-10T09:53:51;93570.31;;;20.93;100.00
24610;BME280;12758;47.890;11.694;2023-06-10T09:56:18;93567.19;;;20.84;100.00
24610;BME280;12758;47.890;11.694;2023-06-10T09:58:44;93564.00;;;20.97;100.00
24610;BME280;12758;47.890;11.694;2023-06-10T10:01:13;93564.75;;;21.01;100.00
24610;BME280;12758;47.890;11.694;2023-06-10T10:03:43;93568.75;;;20.85;100.00
24610;BME280;12758;47.890;11.694;2023-06-10T10:06:11;93574.63;;;20.98;100.00
24610;BME280;12758;47.890;11.694;2023-06-10T10:08:37;93564.72;;;21.08;100.00
24610;BME280;12758;47.890;11.694;2023-06-10T10:11:03;93570.25;;;21.08;100.00
24610;BME280;12758;47.890;11.694;2023-06-10T10:13:29;93574.50;;;21.23;100.00
24610;BME280;12758;47.890;11.694;2023-06-10T10:15:59;93574.91;;;21.25;100.00
24610;BME280;12758;47.890;11.694;2023-06-10T10:18:29;93566.97;;;21.27;100.00
24610;BME280;12758;47.890;11.694;2023-06-10T10:20:55;93574.06;;;21.39;100.00
24610;BME280;12758;47.890;11.694;2023-06-10T10:23:26;93573.22;;;21.46;100.00
24610;BME280;12758;47.890;11.694;2023-06-10T10:25:55;93565.38;;;21.37;100.00
24610;BME280;12758;47.890;11.694;2023-06-10T10:28:24;93571.69;;;21.37;100.00
24610;BME280;12758;47.890;11.694;2023-06-10T10:30:54;93572.81;;;21.47;100.00
24610;BME280;12758;47.890;11.694;2023-06-10T10:33:29;93563.75;;;21.47;100.00
24610;BME280;12758;47.890;11.694;2023-06-10T10:35:57;93569.56;;;21.59;100.00
24610;BME280;12758;47.890;11.694;2023-06-10T10:38:23;93565.28;;;21.55;100.00
24610;BME280;12758;47.890;11.694;2023-06-10T10:40:49;93567.25;;;21.51;100.00
24610;BME280;12758;47.890;11.694;2023-06-10T10:43:16;93562.56;;;21.44;90.22
24610;BME280;12758;47.890;11.694;2023-06-10T10:45:45;93567.66;;;21.53;100.00
24610;BME280;12758;47.890;11.694;2023-06-10T10:48:11;93556.22;;;21.54;98.72
24610;BME280;12758;47.890;11.694;2023-06-10T10:50:38;93558.13;;;21.61;100.00
24610;BME280;12758;47.890;11.694;2023-06-10T10:53:05;93557.44;;;21.46;100.00
24610;BME280;12758;47.890;11.694;2023-06-10T10:55:32;93558.22;;;21.47;97.75
24610;BME280;12758;47.890;11.694;2023-06-10T10:57:59;93557.34;;;21.57;98.94
24610;BME280;12758;47.890;11.694;2023-06-10T11:00:27;93551.84;;;21.53;99.42
24610;BME280;12758;47.890;11.694;2023-06-10T11:02:56;93550.47;;;21.79;88.09
24610;BME280;12758;47.890;11.694;2023-06-10T11:05:31;93555.72;;;21.63;98.20
24610;BME280;12758;47.890;11.694;2023-06-10T11:07:57;93558.00;;;21.75;96.34
24610;BME280;12758;47.890;11.694;2023-06-10T11:10:30;93557.31;;;21.64;92.24
24610;BME280;12758;47.890;11.694;2023-06-10T11:12:57;93547.00;;;22.20;90.00
24610;BME280;12758;47.890;11.694;2023-06-10T11:15:24;93558.00;;;21.75;99.51
24610;BME280;12758;47.890;11.694;2023-06-10T11:18:13;93559.81;;;21.48;100.00
24610;BME280;12758;47.890;11.694;2023-06-10T11:21:01;93558.28;;;21.39;100.00
24610;BME280;12758;47.890;11.694;2023-06-10T11:23:39;93556.69;;;21.31;100.00
24610;BME280;12758;47.890;11.694;2023-06-10T11:26:13;93553.53;;;21.40;100.00
24610;BME280;12758;47.890;11.694;2023-06-10T11:28:39;93555.88;;;21.34;100.00
24610;BME280;12758;47.890;11.694;2023-06-10T11:31:06;93553.50;;;21.44;100.00
24610;BME280;12758;47.890;11.694;2023-06-10T11:33:33;93557.47;;;21.43;100.00
24610;BME280;12758;47.890;11.694;2023-06-10T11:35:59;93550.31;;;21.49;100.00
24610;BME280;12758;47.890;11.694;2023-06-10T11:38:25;93546.31;;;21.53;100.00
24610;BME280;12758;47.890;11.694;2023-06-10T11:40:52;93547.63;;;21.90;98.66
24610;BME280;12758;47.890;11.694;2023-06-10T11:43:19;93546.94;;;21.79;97.90
24610;BME280;12758;47.890;11.694;2023-06-10T11:45:45;93538.94;;;21.92;97.05
24610;BME280;12758;47.890;11.694;2023-06-10T11:48:12;93541.81;;;21.77;98.60
24610;BME280;12758;47.890;11.694;2023-06-10T11:50:39;93546.09;;;21.85;97.71
24610;BME280;12758;47.890;11.694;2023-06-10T11:53:08;93540.25;;;22.25;84.43
24610;BME280;12758;47.890;11.694;2023-06-10T11:55:44;93543.72;;;21.88;95.81
24610;BME280;12758;47.890;11.694;2023-06-10T11:58:13;93533.47;;;21.84;95.20
24610;BME280;12758;47.890;11.694;2023-06-10T12:00:44;93538.22;;;21.84;98.25
24610;BME280;12758;47.890;11.694;2023-06-10T12:03:10;93535.50;;;21.77;97.50
24610;BME280;12758;47.890;11.694;2023-06-10T12:05:36;93537.47;;;21.76;98.52
24610;BME280;12758;47.890;11.694;2023-06-10T12:08:09;93537.47;;;21.76;96.50
24610;BME280;12758;47.890;11.694;2023-06-10T12:10:39;93534.38;;;21.71;95.19
24610;BME280;12758;47.890;11.694;2023-06-10T12:13:06;93528.00;;;21.77;95.14
24610;BME280;12758;47.890;11.694;2023-06-10T12:15:33;93532.75;;;21.73;93.54
24610;BME280;12758;47.890;11.694;2023-06-10T12:17:59;93535.00;;;21.93;84.20
24610;BME280;12758;47.890;11.694;2023-06-10T12:20:26;93519.97;;;21.94;80.30
24610;BME280;12758;47.890;11.694;2023-06-10T12:22:52;93534.34;;;22.61;74.20
24610;BME280;12758;47.890;11.694;2023-06-10T12:25:24;93529.19;;;22.97;72.08
24610;BME280;12758;47.890;11.694;2023-06-10T12:27:51;93525.56;;;23.00;72.29
24610;BME280;12758;47.890;11.694;2023-06-10T12:30:19;93528.56;;;22.78;68.66
24610;BME280;12758;47.890;11.694;2023-06-10T12:32:46;93520.91;;;22.59;67.66
24610;BME280;12758;47.890;11.694;2023-06-10T12:35:13;93527.41;;;22.79;65.75
24610;BME280;12758;47.890;11.694;2023-06-10T12:37:40;93517.56;;;22.75;65.96
24610;BME280;12758;47.890;11.694;2023-06-10T12:40:07;93532.00;;;22.55;69.62
24610;BME280;12758;47.890;11.694;2023-06-10T12:42:35;93520.50;;;22.95;70.02
24610;BME280;12758;47.890;11.694;2023-06-10T12:45:03;93518.72;;;22.77;65.97